»·PEaware :: N4657 L26-KMHV

N4657 :: L26-KMHV

FLIGHT INFORMATION

Flight Status: Arrived
Operator: Privately registered:
United States
More flights under this callsign
Pilot: Daniel P. (20187)
Aircraft: PILATUS PC-12 EAGLE
(PC12)
More flights by this aircraft type
Origin: L26 Hesperia
United States
Destination: KMHV Mojave
United States
More flights between these airports :: More routes between these airports
Route: +HESPE V137 PMD V197 JERID
File this flight plan on PilotEdge
Remarks:
Altitude:
(Current/Filed)
110ft
Speed:
(Current/Filed)
200kts
Departed: 01-Oct-18 10:43 AM
Arrived: 01-Oct-18 11:25 AM
Distance/Time
Traveled:
58nm/0:42
Distance/Time
To Go:
Arrived

Flight Plot

Page will automatically refresh every two minutes.

Flight plan parsing failed; only flown route is shown


Map Options




Map Legend


Flown Route
Filed Route
Departure Airport
Arrival Airport
Navaid (VOR, NDB)
Fix

Horizontal Profiles

Position Reports

Time Latitude Longitude Heading Altitude Ground
Speed
01-Oct-18 10:03 34.376160 -117.316325 34 3369ft 0kts
01-Oct-18 10:04 34.376160 -117.316325 34 3369ft 0kts
01-Oct-18 10:05 34.376160 -117.316325 34 3369ft 0kts
01-Oct-18 10:06 34.376160 -117.316325 34 3369ft 0kts
01-Oct-18 10:07 34.376160 -117.316325 34 3369ft 0kts
01-Oct-18 10:08 34.376160 -117.316325 34 3369ft 0kts
01-Oct-18 10:09 34.376160 -117.316325 34 3369ft 0kts
01-Oct-18 10:10 34.376160 -117.316325 34 3369ft 0kts
01-Oct-18 10:11 34.376160 -117.316325 34 3369ft 0kts
01-Oct-18 10:12 34.376160 -117.316325 34 3369ft 0kts
01-Oct-18 10:13 34.376160 -117.316325 34 3369ft 0kts
01-Oct-18 10:14 34.376160 -117.316325 34 3369ft 0kts
01-Oct-18 10:15 34.376160 -117.316325 34 3369ft 0kts
01-Oct-18 10:16 34.376160 -117.316325 34 3369ft 0kts
01-Oct-18 10:17 34.376160 -117.316325 34 3369ft 0kts
01-Oct-18 10:18 34.376160 -117.316325 34 3369ft 0kts
01-Oct-18 10:19 34.376160 -117.316325 34 3369ft 0kts
01-Oct-18 10:20 34.376160 -117.316325 34 3369ft 0kts
01-Oct-18 10:21 34.376160 -117.316325 34 3369ft 0kts
01-Oct-18 10:22 34.376160 -117.316325 34 3369ft 0kts
01-Oct-18 10:23 34.376160 -117.316325 34 3369ft 0kts
01-Oct-18 10:24 34.376160 -117.316325 34 3369ft 0kts
01-Oct-18 10:25 34.376160 -117.316325 34 3369ft 0kts
01-Oct-18 10:26 34.376160 -117.316325 34 3369ft 0kts
01-Oct-18 10:27 34.376160 -117.316325 34 3369ft 0kts
01-Oct-18 10:28 34.376160 -117.316325 34 3369ft 0kts
01-Oct-18 10:29 34.376160 -117.316325 34 3369ft 0kts
01-Oct-18 10:30 34.376160 -117.316325 34 3369ft 0kts
01-Oct-18 10:31 34.376160 -117.316325 34 3369ft 0kts
01-Oct-18 10:32 34.376160 -117.316325 34 3369ft 0kts
01-Oct-18 10:33 34.376160 -117.316325 34 3369ft 0kts
01-Oct-18 10:34 34.376160 -117.316325 34 3369ft 0kts
01-Oct-18 10:35 34.376160 -117.316325 34 3369ft 0kts
01-Oct-18 10:36 34.376160 -117.316325 34 3369ft 0kts
01-Oct-18 10:37 34.376160 -117.316325 34 3369ft 0kts
01-Oct-18 10:38 34.376160 -117.316325 34 3369ft 0kts
01-Oct-18 10:39 34.376161 -117.316324 34 3369ft 0kts
01-Oct-18 10:40 34.377230 -117.315312 37 3360ft 4kts
01-Oct-18 10:41 34.379558 -117.313115 35 3338ft 5kts
01-Oct-18 10:42 34.380531 -117.312175 34 3329ft 0kts
01-Oct-18 10:43 34.380531 -117.312175 34 3329ft 0kts
01-Oct-18 10:44 34.380864 -117.312233 210 3332ft 3kts
01-Oct-18 10:45 34.371139 -117.321013 213 3704ft 117kts
01-Oct-18 10:46 34.338073 -117.339326 177 5700ft 147kts
01-Oct-18 10:47 34.323142 -117.371760 299 7089ft 155kts
01-Oct-18 10:48 34.337644 -117.421707 277 8479ft 160kts
01-Oct-18 10:49 34.357204 -117.469034 297 9857ft 160kts
01-Oct-18 10:50 34.379764 -117.516676 296 10958ft 178kts
01-Oct-18 10:51 34.405990 -117.573117 296 10983ft 199kts
01-Oct-18 10:52 34.433951 -117.633649 297 10963ft 229kts
01-Oct-18 10:53 34.467529 -117.706322 297 10384ft 260kts
01-Oct-18 10:54 34.501126 -117.779218 296 9983ft 240kts
01-Oct-18 10:55 34.532675 -117.848085 296 9983ft 229kts
01-Oct-18 10:56 34.563307 -117.915081 296 9983ft 227kts
01-Oct-18 10:57 34.593485 -117.981490 297 9981ft 225kts
01-Oct-18 10:58 34.624286 -118.048466 297 9982ft 231kts
01-Oct-18 10:59 34.664196 -118.109680 312 9830ft 235kts
01-Oct-18 11:00 34.709405 -118.167825 311 9036ft 238kts
01-Oct-18 11:01 34.753467 -118.224501 311 8238ft 229kts
01-Oct-18 11:02 34.794254 -118.277055 311 7958ft 192kts
01-Oct-18 11:03 34.828923 -118.321879 311 7960ft 174kts
01-Oct-18 11:04 34.861566 -118.364071 312 7982ft 170kts
01-Oct-18 11:05 34.903599 -118.348616 37 7989ft 179kts
01-Oct-18 11:06 34.942748 -118.310593 36 7995ft 180kts
01-Oct-18 11:07 34.982016 -118.272298 36 8011ft 181kts
01-Oct-18 11:08 35.020316 -118.232637 39 7855ft 181kts
01-Oct-18 11:09 35.057418 -118.191809 46 7462ft 179kts
01-Oct-18 11:10 35.094028 -118.150786 45 7074ft 179kts
01-Oct-18 11:11 35.129998 -118.110743 45 6716ft 178kts
01-Oct-18 11:12 35.165764 -118.070910 44 6701ft 175kts
01-Oct-18 11:13 35.202049 -118.030439 44 6696ft 178kts
01-Oct-18 11:14 35.238823 -117.989574 45 6691ft 179kts
01-Oct-18 11:15 35.276431 -117.949554 30 6689ft 181kts
01-Oct-18 11:16 35.320841 -117.920983 29 6683ft 180kts
01-Oct-18 11:17 35.355749 -117.935608 251 6695ft 170kts
01-Oct-18 11:18 35.315967 -117.949531 179 6686ft 160kts
01-Oct-18 11:19 35.271731 -117.955261 201 6495ft 164kts
01-Oct-18 11:20 35.230958 -117.982704 208 5993ft 170kts
01-Oct-18 11:21 35.190499 -118.012424 209 5492ft 171kts
01-Oct-18 11:22 35.151034 -118.041446 208 4980ft 161kts
01-Oct-18 11:23 35.117872 -118.074255 229 4335ft 143kts
01-Oct-18 11:24 35.097585 -118.105728 227 3737ft 109kts
01-Oct-18 11:25 35.079265 -118.134094 227 3181ft 100kts
01-Oct-18 11:26 35.063795 -118.157985 232 2776ft 46kts
01-Oct-18 11:27 35.059874 -118.164085 231 2777ft 13kts
01-Oct-18 11:28 35.059431 -118.164764 236 2778ft 10kts
01-Oct-18 11:29 35.057377 -118.164114 152 2772ft 6kts
01-Oct-18 11:30 35.057308 -118.164010 88 2772ft 0kts
01-Oct-18 11:31 35.057308 -118.164010 88 2772ft 0kts
01-Oct-18 11:32 35.057308 -118.164010 88 2772ft 0kts
01-Oct-18 11:33 35.057308 -118.164010 88 2772ft 0kts
01-Oct-18 11:34 35.057308 -118.164010 88 2772ft 0kts
01-Oct-18 11:35 35.057308 -118.164010 88 2772ft 0kts
01-Oct-18 11:36 35.057308 -118.164010 88 2772ft 0kts
01-Oct-18 11:37 35.057308 -118.164010 88 2772ft 0kts
01-Oct-18 11:38 35.057308 -118.164010 88 2772ft 0kts
01-Oct-18 11:39 35.057308 -118.164010 88 2772ft 0kts
01-Oct-18 11:40 35.057308 -118.164010 88 2772ft 0kts
01-Oct-18 11:41 35.057308 -118.164010 88 2772ft 0kts

Navigation Log

Ident Type
Flight plan parsing failed, navigation log unavailable